Time;durP1;ratioP1;P1;durP2;ratioP2;P2;SDS_P1;SDS_P2;PMS_P1;PMS_P2;Temp;Humidity;BMP_temperature;BMP_pressure;BME280_temperature;BME280_humidity;BME280_pressure;Samples;Min_cycle;Max_cycle;Signal;HPM_P1;HPM_P2
2021/08/17 00:00:31;;;;;;;136.27;130.23;;;;;;;;;;5037536;28;20488;-73
2021/08/17 00:02:58;;;;;;;124.63;119.33;;;;;;;;;;5037392;28;20467;-72
2021/08/17 00:05:25;;;;;;;136.10;130.30;;;;;;;;;;5038191;28;20490;-70
2021/08/17 00:07:52;;;;;;;145.23;138.97;;;;;;;;;;5036925;28;20831;-70
2021/08/17 00:10:19;;;;;;;155.43;148.73;;;;;;;;;;5038066;28;20463;-70
2021/08/17 00:12:48;;;;;;;148.70;142.40;;;;;;;;;;5037438;28;20460;-69
2021/08/17 00:15:17;;;;;;;137.30;131.10;;;;;;;;;;5036551;28;20494;-70
2021/08/17 00:17:44;;;;;;;141.80;135.70;;;;;;;;;;5037906;28;21299;-71
2021/08/17 00:20:12;;;;;;;138.80;133.00;;;;;;;;;;5036327;28;20491;-71
2021/08/17 00:22:39;;;;;;;138.23;132.03;;;;;;;;;;5037641;28;20464;-70
2021/08/17 00:25:07;;;;;;;131.07;125.37;;;;;;;;;;5037445;28;20503;-70
2021/08/17 00:27:34;;;;;;;132.00;126.50;;;;;;;;;;5037908;28;20452;-70
2021/08/17 00:30:01;;;;;;;132.23;126.73;;;;;;;;;;5036920;28;20531;-70
2021/08/17 00:32:30;;;;;;;125.80;120.40;;;;;;;;;;5039319;28;20548;-70
2021/08/17 00:34:57;;;;;;;119.60;114.53;;;;;;;;;;5036822;28;20918;-70
2021/08/17 00:37:24;;;;;;;111.00;106.20;;;;;;;;;;5037668;28;20452;-71
2021/08/17 00:39:51;;;;;;;105.33;100.37;;;;;;;;;;5037363;28;20484;-71
2021/08/17 00:42:19;;;;;;;102.77;98.17;;;;;;;;;;5032286;28;20464;-71
2021/08/17 00:44:46;;;;;;;92.70;88.67;;;;;;;;;;5034493;28;20488;-71
2021/08/17 00:47:14;;;;;;;95.27;91.07;;;;;;;;;;5034750;28;20464;-71
2021/08/17 00:49:42;;;;;;;95.33;91.07;;;;;;;;;;5033771;28;20480;-71
2021/08/17 00:52:11;;;;;;;95.30;90.90;;;;;;;;;;5032253;28;20469;-71
2021/08/17 00:54:39;;;;;;;95.90;91.17;;;;;;;;;;5033841;28;20469;-71
2021/08/17 00:57:06;;;;;;;95.93;91.73;;;;;;;;;;5030774;28;20459;-71
2021/08/17 00:59:33;;;;;;;103.60;99.00;;;;;;;;;;5035246;28;20480;-73
2021/08/17 01:02:00;;;;;;;97.17;92.87;;;;;;;;;;5033475;28;20468;-71
2021/08/17 01:04:28;;;;;;;97.77;93.47;;;;;;;;;;5035282;28;20448;-72
2021/08/17 01:06:56;;;;;;;97.93;93.40;;;;;;;;;;5033802;28;20461;-71
2021/08/17 01:09:23;;;;;;;99.07;94.63;;;;;;;;;;5025645;28;20445;-71
2021/08/17 01:11:51;;;;;;;93.70;89.53;;;;;;;;;;5034125;28;20477;-72
2021/08/17 01:14:20;;;;;;;95.30;90.70;;;;;;;;;;5034921;28;20449;-73
2021/08/17 01:16:47;;;;;;;99.77;94.83;;;;;;;;;;5033502;28;20468;-73
2021/08/17 01:19:17;;;;;;;96.60;92.13;;;;;;;;;;5034063;28;20487;-73
2021/08/17 01:21:44;;;;;;;105.23;100.73;;;;;;;;;;5032118;28;20460;-73
2021/08/17 01:24:13;;;;;;;102.83;98.10;;;;;;;;;;5034470;28;20824;-71
2021/08/17 01:26:41;;;;;;;105.30;100.50;;;;;;;;;;5032334;28;20456;-71
2021/08/17 01:29:10;;;;;;;96.67;92.17;;;;;;;;;;5033979;28;20460;-73
2021/08/17 01:31:38;;;;;;;87.67;83.47;;;;;;;;;;5033699;28;20476;-71
2021/08/17 01:34:05;;;;;;;88.07;83.83;;;;;;;;;;5034511;28;20491;-72
2021/08/17 01:36:33;;;;;;;94.10;89.60;;;;;;;;;;5032380;28;20488;-73
2021/08/17 01:39:00;;;;;;;88.30;84.10;;;;;;;;;;5034068;28;20456;-71
2021/08/17 01:41:27;;;;;;;92.10;87.97;;;;;;;;;;5033225;28;20469;-72
2021/08/17 01:43:55;;;;;;;97.90;93.40;;;;;;;;;;5033958;28;20455;-72
2021/08/17 01:46:22;;;;;;;92.07;87.90;;;;;;;;;;5032879;28;20488;-72
2021/08/17 01:48:50;;;;;;;92.40;88.40;;;;;;;;;;5034004;28;20543;-72
2021/08/17 01:51:17;;;;;;;88.47;84.37;;;;;;;;;;5031692;28;20464;-72
2021/08/17 01:53:44;;;;;;;86.30;82.17;;;;;;;;;;5031047;28;20464;-70
2021/08/17 01:56:12;;;;;;;85.37;81.47;;;;;;;;;;5029457;28;20856;-71
2021/08/17 01:58:39;;;;;;;82.40;78.50;;;;;;;;;;5033201;28;20475;-71
2021/08/17 02:01:08;;;;;;;75.43;71.70;;;;;;;;;;5031378;28;20509;-70
2021/08/17 02:03:35;;;;;;;71.23;67.73;;;;;;;;;;5033851;28;20460;-71
2021/08/17 02:06:03;;;;;;;66.90;63.50;;;;;;;;;;5032089;28;20497;-72
2021/08/17 02:08:30;;;;;;;63.77;60.57;;;;;;;;;;5033377;28;20661;-72
2021/08/17 02:10:57;;;;;;;61.00;57.70;;;;;;;;;;5031772;28;20463;-71
2021/08/17 02:13:24;;;;;;;58.30;55.30;;;;;;;;;;5033140;28;20945;-72
2021/08/17 02:15:52;;;;;;;60.20;57.00;;;;;;;;;;5031866;28;20477;-72
2021/08/17 02:18:20;;;;;;;62.00;58.40;;;;;;;;;;5032928;28;20451;-70
2021/08/17 02:20:47;;;;;;;62.20;58.83;;;;;;;;;;5031128;28;20484;-71
2021/08/17 02:23:14;;;;;;;63.23;60.00;;;;;;;;;;5032814;28;20460;-72
2021/08/17 02:25:42;;;;;;;63.83;60.50;;;;;;;;;;5032095;28;20488;-72
2021/08/17 02:28:09;;;;;;;62.63;59.33;;;;;;;;;;5033006;28;20471;-72
2021/08/17 02:30:36;;;;;;;62.93;59.53;;;;;;;;;;5030548;28;20437;-70
2021/08/17 02:33:03;;;;;;;57.80;54.67;;;;;;;;;;5031870;28;20943;-70
2021/08/17 02:35:31;;;;;;;55.20;52.30;;;;;;;;;;5030700;28;20485;-70
2021/08/17 02:37:59;;;;;;;54.83;51.90;;;;;;;;;;5032703;28;20464;-72
2021/08/17 02:40:27;;;;;;;56.20;53.27;;;;;;;;;;5031834;28;20512;-72
2021/08/17 02:42:54;;;;;;;60.30;57.20;;;;;;;;;;5032407;28;20989;-71
2021/08/17 02:45:21;;;;;;;59.90;56.80;;;;;;;;;;5032253;28;20473;-71
2021/08/17 02:47:48;;;;;;;57.90;54.60;;;;;;;;;;5031107;28;20468;-71
2021/08/17 02:50:15;;;;;;;59.47;56.17;;;;;;;;;;5033040;28;20449;-71
2021/08/17 02:52:44;;;;;;;57.20;54.20;;;;;;;;;;5019575;28;20469;-71
2021/08/17 02:55:12;;;;;;;53.10;50.20;;;;;;;;;;5020561;28;20484;-71
2021/08/17 02:57:47;;;;;;;51.67;48.77;;;;;;;;;;5032294;28;20460;-71
2021/08/17 03:00:15;;;;;;;53.63;50.70;;;;;;;;;;5031115;28;20986;-71
2021/08/17 03:02:42;;;;;;;51.13;48.33;;;;;;;;;;5032479;28;20480;-71
2021/08/17 03:05:09;;;;;;;48.83;46.23;;;;;;;;;;5029425;28;20507;-71
2021/08/17 03:07:36;;;;;;;47.67;44.90;;;;;;;;;;5017691;22;20493;-62
2021/08/17 03:10:05;;;;;;;47.07;44.17;;;;;;;;;;4997768;28;20469;-62
2021/08/17 03:12:32;;;;;;;45.83;43.10;;;;;;;;;;4997234;28;20458;-62
2021/08/17 03:15:00;;;;;;;48.70;46.10;;;;;;;;;;4989443;28;20474;-62
2021/08/17 03:17:27;;;;;;;49.60;46.80;;;;;;;;;;4992128;28;20497;-62
2021/08/17 03:19:54;;;;;;;53.37;50.37;;;;;;;;;;4992381;28;20597;-62
2021/08/17 03:22:21;;;;;;;46.80;44.00;;;;;;;;;;4992254;28;20468;-62
2021/08/17 03:24:48;;;;;;;46.00;43.40;;;;;;;;;;4992258;28;20481;-62
2021/08/17 03:27:16;;;;;;;45.80;43.10;;;;;;;;;;4992653;28;20470;-62
2021/08/17 03:29:43;;;;;;;43.70;41.30;;;;;;;;;;4991756;28;20462;-62
2021/08/17 03:32:11;;;;;;;43.50;41.10;;;;;;;;;;4991458;28;20470;-62
2021/08/17 03:34:38;;;;;;;40.87;38.47;;;;;;;;;;4992220;28;20463;-62
2021/08/17 03:37:05;;;;;;;39.50;37.20;;;;;;;;;;4992032;28;21019;-62
2021/08/17 03:39:32;;;;;;;39.73;37.27;;;;;;;;;;4990848;28;20478;-62
2021/08/17 03:41:59;;;;;;;44.50;42.07;;;;;;;;;;4992293;28;20579;-62
2021/08/17 03:44:28;;;;;;;41.70;39.23;;;;;;;;;;4991857;28;20473;-63
2021/08/17 03:46:55;;;;;;;46.17;43.33;;;;;;;;;;4991410;28;20513;-62
2021/08/17 03:49:22;;;;;;;45.50;42.90;;;;;;;;;;4991848;28;20470;-62
2021/08/17 03:51:49;;;;;;;49.07;46.20;;;;;;;;;;4991991;28;20549;-62
2021/08/17 03:54:16;;;;;;;48.47;45.17;;;;;;;;;;4992575;28;20934;-62
2021/08/17 03:56:43;;;;;;;44.57;41.97;;;;;;;;;;4989677;28;20500;-63
2021/08/17 03:59:10;;;;;;;44.93;42.03;;;;;;;;;;4975658;28;20820;-62
2021/08/17 04:01:39;;;;;;;42.80;40.10;;;;;;;;;;4989620;28;20578;-63
2021/08/17 04:04:06;;;;;;;41.03;38.50;;;;;;;;;;4996136;28;20446;-62
2021/08/17 04:06:33;;;;;;;48.13;45.10;;;;;;;;;;4995868;28;20785;-63
2021/08/17 04:09:00;;;;;;;52.70;49.70;;;;;;;;;;4993409;28;20458;-63
2021/08/17 04:11:27;;;;;;;54.50;51.50;;;;;;;;;;4994366;28;20449;-62
2021/08/17 04:13:54;;;;;;;48.20;45.30;;;;;;;;;;4991382;28;20913;-63
2021/08/17 04:16:21;;;;;;;51.17;47.83;;;;;;;;;;4992479;28;20482;-63
2021/08/17 04:18:50;;;;;;;51.90;48.80;;;;;;;;;;4995639;28;20969;-62
2021/08/17 04:21:17;;;;;;;52.13;49.17;;;;;;;;;;4996047;28;21005;-62
2021/08/17 04:23:44;;;;;;;55.70;52.40;;;;;;;;;;4995829;28;20466;-62
2021/08/17 04:26:11;;;;;;;48.87;46.07;;;;;;;;;;4995648;28;20847;-62
2021/08/17 04:28:38;;;;;;;47.50;44.80;;;;;;;;;;4993719;28;20474;-62
2021/08/17 04:31:05;;;;;;;46.23;43.33;;;;;;;;;;4994689;28;20473;-63
2021/08/17 04:33:32;;;;;;;45.20;42.60;;;;;;;;;;4999095;28;20450;-61
2021/08/17 04:36:01;;;;;;;41.43;38.83;;;;;;;;;;4996325;28;20825;-61
2021/08/17 04:38:28;;;;;;;41.87;39.53;;;;;;;;;;4997411;28;20470;-63
2021/08/17 04:40:55;;;;;;;38.37;35.93;;;;;;;;;;4993548;28;20851;-64
2021/08/17 04:43:22;;;;;;;42.00;39.50;;;;;;;;;;4995967;28;20470;-64
2021/08/17 04:45:52;;;;;;;42.20;39.80;;;;;;;;;;4996552;28;20473;-65
2021/08/17 04:48:19;;;;;;;43.13;40.53;;;;;;;;;;4996736;28;20501;-64
2021/08/17 04:50:47;;;;;;;43.80;41.33;;;;;;;;;;4995584;28;20472;-63
2021/08/17 04:53:15;;;;;;;43.77;41.23;;;;;;;;;;4979386;28;20477;-64
2021/08/17 04:55:43;;;;;;;44.50;41.87;;;;;;;;;;4982382;28;20462;-64
2021/08/17 04:58:10;;;;;;;41.53;39.10;;;;;;;;;;4993913;28;20477;-64
2021/08/17 05:00:43;;;;;;;45.20;42.57;;;;;;;;;;4993638;28;21008;-63
2021/08/17 05:03:10;;;;;;;44.60;41.90;;;;;;;;;;4994320;28;20991;-64
2021/08/17 05:05:37;;;;;;;43.77;41.20;;;;;;;;;;4994635;28;20481;-63
2021/08/17 05:08:06;;;;;;;45.10;42.50;;;;;;;;;;4993806;28;20505;-62
2021/08/17 05:10:35;;;;;;;43.93;41.33;;;;;;;;;;4995038;28;20450;-62
2021/08/17 05:13:03;;;;;;;46.63;43.73;;;;;;;;;;4992510;28;20938;-62
2021/08/17 05:15:30;;;;;;;47.27;44.53;;;;;;;;;;4992517;28;20455;-63
2021/08/17 05:17:58;;;;;;;46.37;43.50;;;;;;;;;;4995075;28;20488;-62
2021/08/17 05:20:25;;;;;;;49.37;46.37;;;;;;;;;;4993650;28;20485;-62
2021/08/17 05:22:52;;;;;;;49.20;46.20;;;;;;;;;;4993676;28;20466;-62
2021/08/17 05:25:19;;;;;;;73.97;70.10;;;;;;;;;;4993842;28;20466;-62
2021/08/17 05:27:48;;;;;;;51.20;48.03;;;;;;;;;;4993452;28;20485;-63
2021/08/17 05:30:16;;;;;;;51.60;48.43;;;;;;;;;;4993817;28;20467;-62
2021/08/17 05:32:43;;;;;;;54.00;50.80;;;;;;;;;;4994075;28;20466;-63
2021/08/17 05:35:10;;;;;;;53.27;49.97;;;;;;;;;;4992742;28;20463;-63
2021/08/17 05:37:37;;;;;;;59.90;56.70;;;;;;;;;;4993493;28;20532;-63
2021/08/17 05:40:06;;;;;;;56.40;52.77;;;;;;;;;;4993633;28;20474;-62
2021/08/17 05:42:33;;;;;;;56.43;53.13;;;;;;;;;;4993956;28;20887;-63
2021/08/17 05:45:01;;;;;;;69.23;65.33;;;;;;;;;;4992919;28;20459;-63
2021/08/17 05:47:28;;;;;;;68.90;64.70;;;;;;;;;;4993047;28;20492;-63
2021/08/17 05:49:55;;;;;;;70.60;66.20;;;;;;;;;;4993686;28;20838;-63
2021/08/17 05:52:22;;;;;;;68.10;64.07;;;;;;;;;;4996520;28;20473;-63
2021/08/17 05:54:50;;;;;;;75.07;70.87;;;;;;;;;;4994955;28;20949;-63
2021/08/17 05:57:17;;;;;;;69.20;65.03;;;;;;;;;;4994742;28;20501;-63
2021/08/17 05:59:44;;;;;;;67.27;63.27;;;;;;;;;;4993431;28;20465;-63
2021/08/17 06:02:13;;;;;;;67.87;63.73;;;;;;;;;;4994057;28;20581;-65
2021/08/17 06:04:40;;;;;;;70.03;66.10;;;;;;;;;;4991969;28;20504;-64
2021/08/17 06:07:07;;;;;;;60.00;56.20;;;;;;;;;;4993357;28;20985;-64
2021/08/17 06:09:35;;;;;;;60.80;57.10;;;;;;;;;;4991861;28;20470;-63
2021/08/17 06:12:02;;;;;;;53.37;50.07;;;;;;;;;;4992663;28;20471;-64
2021/08/17 06:14:29;;;;;;;53.63;50.53;;;;;;;;;;4992133;28;20458;-64
2021/08/17 06:16:56;;;;;;;56.20;52.97;;;;;;;;;;4992767;28;20486;-64
2021/08/17 06:19:25;;;;;;;53.33;50.33;;;;;;;;;;4993421;28;20972;-64
2021/08/17 06:21:52;;;;;;;50.20;47.27;;;;;;;;;;4992726;28;20496;-65
2021/08/17 06:24:19;;;;;;;58.00;54.80;;;;;;;;;;4991425;28;20474;-64
2021/08/17 06:26:46;;;;;;;59.60;56.00;;;;;;;;;;4992058;28;21036;-64
2021/08/17 06:29:13;;;;;;;53.30;50.10;;;;;;;;;;4992996;28;20848;-64
2021/08/17 06:31:40;;;;;;;56.03;53.03;;;;;;;;;;4982562;28;20474;-63
2021/08/17 06:34:08;;;;;;;54.87;51.77;;;;;;;;;;4983654;28;20474;-64
2021/08/17 06:36:37;;;;;;;55.13;52.03;;;;;;;;;;4993146;28;20556;-64
2021/08/17 06:39:04;;;;;;;56.47;53.20;;;;;;;;;;4989095;28;20467;-64
2021/08/17 06:41:31;;;;;;;59.83;56.53;;;;;;;;;;4994215;28;20577;-64
2021/08/17 06:43:58;;;;;;;58.23;54.93;;;;;;;;;;4993366;28;20457;-65
2021/08/17 06:46:26;;;;;;;62.50;58.90;;;;;;;;;;4983060;28;21084;-64
2021/08/17 06:48:53;;;;;;;61.67;58.27;;;;;;;;;;4994296;28;20455;-64
2021/08/17 06:51:21;;;;;;;59.90;56.17;;;;;;;;;;4989357;28;20470;-64
2021/08/17 06:53:49;;;;;;;57.87;54.57;;;;;;;;;;4991353;28;20459;-64
2021/08/17 06:56:16;;;;;;;53.90;50.77;;;;;;;;;;4985540;28;20860;-65
2021/08/17 06:58:43;;;;;;;56.50;53.40;;;;;;;;;;4992593;28;20465;-63
2021/08/17 07:01:10;;;;;;;53.00;49.70;;;;;;;;;;4991057;28;20482;-65
2021/08/17 07:03:38;;;;;;;49.00;46.10;;;;;;;;;;4986611;28;20473;-64
2021/08/17 07:06:05;;;;;;;52.87;49.87;;;;;;;;;;4989829;28;20502;-64
2021/08/17 07:08:32;;;;;;;55.40;52.40;;;;;;;;;;4992851;28;20455;-64
2021/08/17 07:11:01;;;;;;;55.50;51.90;;;;;;;;;;4987898;28;20529;-63
2021/08/17 07:13:28;;;;;;;54.90;51.47;;;;;;;;;;4992239;28;20976;-64
2021/08/17 07:15:55;;;;;;;54.33;51.03;;;;;;;;;;4992335;28;20457;-65
2021/08/17 07:18:23;;;;;;;54.37;51.27;;;;;;;;;;4991844;28;20450;-65
2021/08/17 07:20:50;;;;;;;52.67;49.57;;;;;;;;;;4992174;28;20450;-63
2021/08/17 07:23:17;;;;;;;52.80;49.70;;;;;;;;;;4988715;28;20450;-63
2021/08/17 07:25:45;;;;;;;47.67;44.77;;;;;;;;;;4979631;28;20462;-63
2021/08/17 07:28:13;;;;;;;47.80;44.63;;;;;;;;;;4985966;28;20454;-63
2021/08/17 07:30:41;;;;;;;51.37;48.30;;;;;;;;;;4991458;28;20451;-63
2021/08/17 07:33:08;;;;;;;46.03;43.00;;;;;;;;;;4989459;28;20455;-63
2021/08/17 07:35:36;;;;;;;49.37;46.07;;;;;;;;;;4991481;28;20546;-63
2021/08/17 07:38:04;;;;;;;56.23;53.03;;;;;;;;;;4991886;28;20455;-64
2021/08/17 07:40:31;;;;;;;55.20;52.00;;;;;;;;;;4989429;28;20478;-63
2021/08/17 07:42:58;;;;;;;56.77;53.47;;;;;;;;;;4991200;28;20994;-63
2021/08/17 07:45:26;;;;;;;65.47;61.77;;;;;;;;;;4982075;28;20457;-63
2021/08/17 07:47:54;;;;;;;62.10;58.70;;;;;;;;;;4991932;28;20480;-63
2021/08/17 07:50:21;;;;;;;53.73;50.73;;;;;;;;;;4992699;28;20454;-63
2021/08/17 07:52:48;;;;;;;53.97;50.97;;;;;;;;;;4992832;28;20450;-63
2021/08/17 07:55:16;;;;;;;57.03;53.73;;;;;;;;;;4996058;28;20458;-63
2021/08/17 07:57:43;;;;;;;55.63;52.53;;;;;;;;;;4994954;28;20536;-63
2021/08/17 08:00:12;;;;;;;59.53;55.93;;;;;;;;;;4994743;28;21096;-63
2021/08/17 08:02:40;;;;;;;58.10;54.70;;;;;;;;;;4991985;28;20482;-63
2021/08/17 08:05:08;;;;;;;61.03;57.53;;;;;;;;;;4995397;28;20454;-60
2021/08/17 08:07:35;;;;;;;62.00;58.30;;;;;;;;;;4986652;28;20505;-62
2021/08/17 08:10:02;;;;;;;85.37;80.60;;;;;;;;;;4995721;28;20545;-61
2021/08/17 08:12:29;;;;;;;123.37;117.33;;;;;;;;;;4995208;28;20529;-61
2021/08/17 08:14:57;;;;;;;135.70;129.20;;;;;;;;;;4995106;28;20509;-61
2021/08/17 08:17:24;;;;;;;137.80;130.83;;;;;;;;;;4994606;28;20569;-62
2021/08/17 08:19:52;;;;;;;164.60;156.93;;;;;;;;;;4989773;28;20766;-61
2021/08/17 08:22:19;;;;;;;184.17;175.53;;;;;;;;;;4993266;28;20489;-61
2021/08/17 08:24:47;;;;;;;167.47;159.37;;;;;;;;;;4995053;28;20537;-61
2021/08/17 08:27:15;;;;;;;195.60;186.63;;;;;;;;;;4995302;28;20482;-61
2021/08/17 08:29:43;;;;;;;201.20;191.73;;;;;;;;;;4995688;28;20427;-61
2021/08/17 08:32:10;;;;;;;207.43;198.03;;;;;;;;;;4994064;28;20814;-61
2021/08/17 08:34:37;;;;;;;217.93;208.07;;;;;;;;;;4994386;28;20454;-61
2021/08/17 08:37:06;;;;;;;240.40;229.60;;;;;;;;;;4990132;28;20993;-61
2021/08/17 08:39:33;;;;;;;239.57;227.83;;;;;;;;;;4995218;28;20461;-66
2021/08/17 08:42:01;;;;;;;153.23;144.90;;;;;;;;;;4994127;28;20532;-69
2021/08/17 08:44:28;;;;;;;135.67;128.00;;;;;;;;;;4993707;28;20454;-69
2021/08/17 08:46:55;;;;;;;129.47;121.73;;;;;;;;;;4994162;28;20488;-70
2021/08/17 08:49:22;;;;;;;130.07;121.57;;;;;;;;;;4994994;28;20964;-69
2021/08/17 08:51:49;;;;;;;122.00;114.80;;;;;;;;;;4993303;28;20449;-69
2021/08/17 08:54:18;;;;;;;118.23;110.80;;;;;;;;;;4994789;28;20467;-70
2021/08/17 08:56:45;;;;;;;119.03;112.03;;;;;;;;;;4995032;28;20481;-69
2021/08/17 08:59:13;;;;;;;111.40;104.00;;;;;;;;;;4990517;28;20460;-70
2021/08/17 09:01:40;;;;;;;103.37;96.90;;;;;;;;;;4974595;28;20476;-69
2021/08/17 09:04:07;;;;;;;103.40;96.70;;;;;;;;;;4975536;28;20447;-69
2021/08/17 09:06:34;;;;;;;104.43;97.23;;;;;;;;;;5012865;22;20482;-70
2021/08/17 09:09:06;;;;;;;106.43;99.20;;;;;;;;;;5029452;28;20464;-78
2021/08/17 09:11:34;;;;;;;110.37;103.37;;;;;;;;;;5045112;28;20450;-72
2021/08/17 09:14:16;;;;;;;112.30;104.87;;;;;;;;;;5053998;28;20447;-75
2021/08/17 09:16:43;;;;;;;129.73;122.13;;;;;;;;;;5054016;28;20499;-74
2021/08/17 09:19:23;;;;;;;122.53;114.63;;;;;;;;;;5053636;28;20452;-73
2021/08/17 09:21:50;;;;;;;122.33;114.53;;;;;;;;;;5021978;28;20485;-76
2021/08/17 09:24:21;;;;;;;127.97;119.63;;;;;;;;;;5013744;28;20819;-70
2021/08/17 09:26:51;;;;;;;121.13;112.83;;;;;;;;;;5014155;28;20479;-78
2021/08/17 09:29:26;;;;;;;126.00;117.70;;;;;;;;;;5017497;28;21007;-78
2021/08/17 09:31:53;;;;;;;121.90;114.00;;;;;;;;;;5033052;28;20452;-78
2021/08/17 09:34:23;;;;;;;113.80;105.90;;;;;;;;;;5013786;28;20463;-76
2021/08/17 09:36:51;;;;;;;116.20;108.53;;;;;;;;;;5013661;28;20524;-76
2021/08/17 09:39:31;;;;;;;109.33;102.03;;;;;;;;;;5013822;28;20456;-76
2021/08/17 09:42:13;;;;;;;104.33;97.50;;;;;;;;;;5013124;28;20482;-79
2021/08/17 09:44:40;;;;;;;109.40;101.93;;;;;;;;;;5018985;28;20457;-79
2021/08/17 09:47:08;;;;;;;104.10;97.20;;;;;;;;;;5033253;28;20477;-73
2021/08/17 09:49:35;;;;;;;105.03;98.27;;;;;;;;;;5033185;28;20484;-78
2021/08/17 09:52:08;;;;;;;101.70;95.00;;;;;;;;;;5032950;28;20954;-75
2021/08/17 09:54:37;;;;;;;102.23;95.30;;;;;;;;;;5032914;28;20527;-77
2021/08/17 09:57:06;;;;;;;102.00;95.40;;;;;;;;;;5032796;28;20476;-79
2021/08/17 09:59:35;;;;;;;99.83;93.30;;;;;;;;;;5032329;28;20867;-76
2021/08/17 10:02:03;;;;;;;97.00;90.50;;;;;;;;;;5032871;28;20831;-78
2021/08/17 10:04:30;;;;;;;100.13;93.43;;;;;;;;;;5033230;28;20540;-72
2021/08/17 10:06:59;;;;;;;100.60;94.00;;;;;;;;;;5032189;28;20835;-73
2021/08/17 10:09:26;;;;;;;111.13;103.67;;;;;;;;;;5033148;28;20452;-74
2021/08/17 10:11:54;;;;;;;129.47;120.63;;;;;;;;;;5030840;28;20812;-76
2021/08/17 10:14:21;;;;;;;132.90;123.80;;;;;;;;;;5032679;28;20456;-76
2021/08/17 10:16:49;;;;;;;147.27;137.37;;;;;;;;;;5032463;28;20480;-71
2021/08/17 10:19:18;;;;;;;156.17;145.07;;;;;;;;;;5032886;28;20469;-74
2021/08/17 10:21:47;;;;;;;163.93;152.83;;;;;;;;;;5031943;28;20797;-74
2021/08/17 10:24:27;;;;;;;174.37;163.10;;;;;;;;;;5031825;28;20449;-73
2021/08/17 10:27:09;;;;;;;173.17;161.43;;;;;;;;;;5016503;28;20850;-75
2021/08/17 10:29:36;;;;;;;172.87;161.50;;;;;;;;;;5012637;28;20456;-72
2021/08/17 10:32:05;;;;;;;186.00;174.30;;;;;;;;;;5016567;28;20441;-75
2021/08/17 10:34:37;;;;;;;161.67;150.70;;;;;;;;;;5032686;28;20448;-70
2021/08/17 10:37:20;;;;;;;164.93;154.00;;;;;;;;;;5031803;28;20922;-69
2021/08/17 10:39:47;;;;;;;147.13;137.43;;;;;;;;;;5033912;28;20818;-75
2021/08/17 10:42:22;;;;;;;155.37;144.73;;;;;;;;;;5032453;28;20481;-69
2021/08/17 10:44:49;;;;;;;202.60;189.17;;;;;;;;;;5033036;28;20440;-65
2021/08/17 10:47:30;;;;;;;267.73;251.93;;;;;;;;;;5030316;28;20469;-65
2021/08/17 10:49:57;;;;;;;193.27;180.20;;;;;;;;;;5013605;28;20455;-74
2021/08/17 10:52:32;;;;;;;203.60;190.90;;;;;;;;;;5013248;28;20456;-69
2021/08/17 10:55:23;;;;;;;172.17;160.27;;;;;;;;;;5013249;28;20449;-70
2021/08/17 10:57:51;;;;;;;169.60;158.00;;;;;;;;;;5024349;28;20477;-68
2021/08/17 11:00:33;;;;;;;180.20;167.90;;;;;;;;;;5033060;28;20448;-69
2021/08/17 11:03:04;;;;;;;187.93;175.43;;;;;;;;;;5032703;28;20491;-68
2021/08/17 11:05:50;;;;;;;191.20;178.60;;;;;;;;;;5032183;28;20433;-70
2021/08/17 11:08:32;;;;;;;300.20;283.23;;;;;;;;;;5020071;28;20481;-76
2021/08/17 11:10:59;;;;;;;290.90;274.23;;;;;;;;;;5030286;28;20456;-75
2021/08/17 11:13:26;;;;;;;275.37;259.87;;;;;;;;;;5032917;28;20436;-73
2021/08/17 11:16:06;;;;;;;308.90;291.80;;;;;;;;;;5032598;28;20470;-66
2021/08/17 11:18:48;;;;;;;297.03;279.87;;;;;;;;;;5032824;28;20471;-68
2021/08/17 11:21:29;;;;;;;308.23;290.60;;;;;;;;;;5032029;28;20467;-76
2021/08/17 11:24:06;;;;;;;274.97;259.33;;;;;;;;;;5030243;28;21014;-77
2021/08/17 11:26:33;;;;;;;285.37;269.47;;;;;;;;;;5029210;28;20477;-80
2021/08/17 11:29:00;;;;;;;264.90;249.20;;;;;;;;;;5031944;28;20448;-77
2021/08/17 11:31:28;;;;;;;273.10;257.20;;;;;;;;;;5029000;28;20552;-70
2021/08/17 11:34:10;;;;;;;302.33;285.27;;;;;;;;;;5030069;28;20467;-78
2021/08/17 11:36:38;;;;;;;307.77;290.00;;;;;;;;;;5019336;28;20559;-74
2021/08/17 11:39:17;;;;;;;294.80;277.50;;;;;;;;;;5011629;28;20819;-71
2021/08/17 11:41:44;;;;;;;305.80;288.20;;;;;;;;;;5029338;28;20440;-74
2021/08/17 11:44:11;;;;;;;255.90;240.20;;;;;;;;;;5031052;28;21011;-77
2021/08/17 11:46:38;;;;;;;283.97;266.57;;;;;;;;;;5030941;28;20559;-77
2021/08/17 11:49:20;;;;;;;255.87;239.93;;;;;;;;;;5021573;28;20547;-74
2021/08/17 11:51:57;;;;;;;276.50;260.97;;;;;;;;;;5026640;28;21593;-76
2021/08/17 11:54:24;;;;;;;221.90;208.03;;;;;;;;;;5028432;28;20480;-71
2021/08/17 11:56:56;;;;;;;257.77;242.57;;;;;;;;;;5030716;28;20831;-73
2021/08/17 11:59:23;;;;;;;157.90;147.40;;;;;;;;;;5030659;28;20433;-70
2021/08/17 12:01:58;;;;;;;166.23;154.57;;;;;;;;;;5029726;28;20460;-74
2021/08/17 12:04:25;;;;;;;180.03;167.30;;;;;;;;;;5030161;28;20479;-72
2021/08/17 12:09:46;;;;;;;171.80;159.07;;;;;;;;;;5089411;27;21059;-71
2021/08/17 12:12:14;;;;;;;169.00;156.83;;;;;;;;;;5092008;28;20446;-71
2021/08/17 12:14:41;;;;;;;152.63;141.17;;;;;;;;;;5092372;28;20454;-69
2021/08/17 12:17:10;;;;;;;164.77;153.10;;;;;;;;;;5088609;28;20473;-71
2021/08/17 12:19:45;;;;;;;157.60;146.80;;;;;;;;;;5077573;28;20795;-70
2021/08/17 12:22:21;;;;;;;149.50;138.60;;;;;;;;;;5068427;28;20538;-71
2021/08/17 12:24:50;;;;;;;155.80;145.00;;;;;;;;;;5068879;28;20439;-70
2021/08/17 12:27:22;;;;;;;153.20;142.30;;;;;;;;;;5068699;28;20471;-71
2021/08/17 12:29:49;;;;;;;149.13;138.00;;;;;;;;;;5078353;28;20441;-69
2021/08/17 12:32:18;;;;;;;276.03;259.27;;;;;;;;;;5072340;28;20447;-70
2021/08/17 12:34:45;;;;;;;308.97;290.37;;;;;;;;;;5077615;28;20446;-71
2021/08/17 12:37:31;;;;;;;296.10;278.20;;;;;;;;;;5079585;28;20576;-70
2021/08/17 12:40:00;;;;;;;296.97;279.90;;;;;;;;;;5080227;28;20453;-70
2021/08/17 12:42:28;;;;;;;288.57;271.37;;;;;;;;;;5088443;28;20438;-69
2021/08/17 12:44:55;;;;;;;300.93;282.20;;;;;;;;;;5074937;28;20447;-71
2021/08/17 12:47:25;;;;;;;257.87;241.97;;;;;;;;;;5080546;28;20465;-71
2021/08/17 12:49:54;;;;;;;244.67;230.07;;;;;;;;;;5074805;28;21043;-71
2021/08/17 12:52:28;;;;;;;238.20;224.20;;;;;;;;;;5084233;28;21055;-71
2021/08/17 12:54:56;;;;;;;241.27;226.87;;;;;;;;;;5076135;28;20454;-69
2021/08/17 12:57:26;;;;;;;211.67;198.30;;;;;;;;;;5067872;28;20478;-71
2021/08/17 12:59:53;;;;;;;233.37;219.60;;;;;;;;;;5069590;28;20462;-69
2021/08/17 13:02:21;;;;;;;233.57;218.97;;;;;;;;;;5068079;28;20799;-71
2021/08/17 13:04:48;;;;;;;240.17;225.27;;;;;;;;;;5084880;28;20476;-69
2021/08/17 13:07:15;;;;;;;251.50;236.47;;;;;;;;;;5076788;28;20988;-71
2021/08/17 13:09:42;;;;;;;278.67;261.73;;;;;;;;;;5071241;28;20493;-70
2021/08/17 13:12:10;;;;;;;257.60;242.70;;;;;;;;;;5067421;28;20447;-70
2021/08/17 13:14:38;;;;;;;269.40;253.60;;;;;;;;;;5080954;28;20461;-70
2021/08/17 13:17:06;;;;;;;275.27;259.57;;;;;;;;;;5084983;28;20470;-70
2021/08/17 13:19:33;;;;;;;278.23;261.83;;;;;;;;;;5070037;28;20451;-70
2021/08/17 13:22:01;;;;;;;266.67;250.43;;;;;;;;;;5054223;28;20454;-70
2021/08/17 13:24:29;;;;;;;296.23;278.90;;;;;;;;;;5059622;28;20518;-70
2021/08/17 13:26:56;;;;;;;300.63;282.17;;;;;;;;;;5054235;28;20563;-70
2021/08/17 13:29:24;;;;;;;245.13;229.40;;;;;;;;;;5054110;28;21059;-70
2021/08/17 13:31:52;;;;;;;324.30;304.00;;;;;;;;;;5065292;28;21009;-70
2021/08/17 13:34:21;;;;;;;355.33;333.63;;;;;;;;;;5067470;28;20443;-69
2021/08/17 13:36:53;;;;;;;349.60;327.57;;;;;;;;;;5055964;28;20475;-66
2021/08/17 13:39:30;;;;;;;344.77;322.20;;;;;;;;;;5060218;28;20452;-68
2021/08/17 13:41:58;;;;;;;369.07;347.17;;;;;;;;;;5063273;28;20458;-68
2021/08/17 13:44:32;;;;;;;338.33;316.70;;;;;;;;;;5071310;28;20820;-66
2021/08/17 13:47:03;;;;;;;270.80;254.50;;;;;;;;;;5071737;28;20509;-66
2021/08/17 13:49:33;;;;;;;370.30;348.60;;;;;;;;;;5063606;28;20474;-66
2021/08/17 13:52:03;;;;;;;364.93;344.47;;;;;;;;;;5056611;28;20461;-66
2021/08/17 13:54:33;;;;;;;222.60;207.80;;;;;;;;;;5061346;28;20531;-67
2021/08/17 13:57:04;;;;;;;221.87;207.77;;;;;;;;;;5070133;28;20474;-66
2021/08/17 13:59:45;;;;;;;223.50;209.70;;;;;;;;;;5052780;28;20455;-66
2021/08/17 14:02:31;;;;;;;;;;;;;;;;;;;;;
2021/08/17 14:04:59;;;;;;;200.07;187.67;;;;;;;;;;5054131;28;20840;-67
2021/08/17 14:07:34;;;;;;;181.43;169.47;;;;;;;;;;5067552;28;20514;-71
2021/08/17 14:10:12;;;;;;;209.37;195.97;;;;;;;;;;5052941;28;20533;-67
2021/08/17 14:12:39;;;;;;;195.37;183.17;;;;;;;;;;5053083;28;20456;-69
2021/08/17 14:15:07;;;;;;;207.63;194.93;;;;;;;;;;5065966;28;20453;-67
2021/08/17 14:17:36;;;;;;;203.60;190.33;;;;;;;;;;5051894;28;20855;-66